createdAt,value
2023-03-18T00:01:42.464Z,52.89
2023-03-18T00:04:11.596Z,53.18
2023-03-18T00:06:40.689Z,52.89
2023-03-18T00:09:12.637Z,53.21
2023-03-18T00:11:42.056Z,52.92
2023-03-18T00:14:11.330Z,52.28
2023-03-18T00:16:43.069Z,52.94
2023-03-18T00:19:11.706Z,53.17
2023-03-18T00:21:40.066Z,52.88
2023-03-18T00:24:10.062Z,52.72
2023-03-18T00:26:39.562Z,52.83
2023-03-18T00:29:08.020Z,52.89
2023-03-18T00:31:38.478Z,52.66
2023-03-18T00:34:08.153Z,52.72
2023-03-18T00:36:38.593Z,52.61
2023-03-18T00:39:07.615Z,52.82
2023-03-18T00:41:38.219Z,52.85
2023-03-18T00:44:07.675Z,52.97
2023-03-18T00:46:37.867Z,53.37
2023-03-18T00:49:08.037Z,53.28
2023-03-18T00:51:37.684Z,53.17
2023-03-18T00:54:09.907Z,53.36
2023-03-18T00:56:39.254Z,52.97
2023-03-18T00:59:07.872Z,53.20
2023-03-18T01:01:36.870Z,53.26
2023-03-18T01:04:06.480Z,53.22
2023-03-18T01:06:36.522Z,53.14
2023-03-18T01:09:05.690Z,53.65
2023-03-18T01:11:35.750Z,53.21
2023-03-18T01:14:04.007Z,53.73
2023-03-18T01:16:32.977Z,53.86
2023-03-18T01:19:01.761Z,53.89
2023-03-18T01:21:30.143Z,53.61
2023-03-18T01:24:01.158Z,53.98
2023-03-18T01:26:30.639Z,53.94
2023-03-18T01:29:00.900Z,53.85
2023-03-18T01:31:30.340Z,53.90
2023-03-18T01:34:06.456Z,53.94
2023-03-18T01:36:43.849Z,53.82
2023-03-18T01:39:12.649Z,54.11
2023-03-18T01:41:42.707Z,53.78
2023-03-18T01:44:17.766Z,53.47
2023-03-18T01:46:47.694Z,53.93
2023-03-18T01:49:19.261Z,53.61
2023-03-18T01:52:18.300Z,53.39
2023-03-18T01:54:53.485Z,54.07
2023-03-18T01:57:22.781Z,54.26
2023-03-18T01:59:52.091Z,54.12
2023-03-18T02:02:21.026Z,53.96
2023-03-18T02:04:53.964Z,54.04
2023-03-18T02:07:26.347Z,54.01
2023-03-18T02:09:55.855Z,53.76
2023-03-18T02:12:27.181Z,54.23
2023-03-18T02:14:58.836Z,54.02
2023-03-18T02:17:30.598Z,54.04
2023-03-18T02:20:11.564Z,53.95
2023-03-18T02:22:43.620Z,53.94
2023-03-18T02:25:34.785Z,53.81
2023-03-18T02:28:04.699Z,54.10
2023-03-18T02:30:38.258Z,54.05
2023-03-18T02:33:53.583Z,62.13
2023-03-18T02:36:24.450Z,54.77
2023-03-18T02:38:53.393Z,54.36
2023-03-18T02:41:27.411Z,54.45
2023-03-18T02:43:56.220Z,54.94
2023-03-18T02:46:42.998Z,55.02
2023-03-18T02:49:12.568Z,54.79
2023-03-18T02:51:42.030Z,55.01
2023-03-18T02:54:15.733Z,55.24
2023-03-18T02:56:46.727Z,54.86
2023-03-18T02:59:17.972Z,55.28
2023-03-18T03:01:48.254Z,55.40
2023-03-18T03:04:17.452Z,54.86
2023-03-18T03:06:47.325Z,55.26
2023-03-18T03:09:17.306Z,55.03
2023-03-18T03:11:46.407Z,54.78
2023-03-18T03:14:18.374Z,54.82
2023-03-18T03:16:47.527Z,54.56
2023-03-18T03:19:18.147Z,54.27
2023-03-18T03:21:48.700Z,54.18
2023-03-18T03:24:16.941Z,54.70
2023-03-18T03:26:46.582Z,53.96
2023-03-18T03:29:14.907Z,53.75
2023-03-18T03:31:43.082Z,53.96
2023-03-18T03:34:12.138Z,53.48
2023-03-18T03:36:41.024Z,53.70
2023-03-18T03:39:12.522Z,54.09
2023-03-18T03:41:41.855Z,53.41
2023-03-18T03:44:10.169Z,53.42
2023-03-18T03:46:39.790Z,53.29
2023-03-18T03:49:08.229Z,53.58
2023-03-18T03:51:37.098Z,53.31
2023-03-18T03:54:05.708Z,52.96
2023-03-18T03:56:37.009Z,52.85
2023-03-18T03:59:05.634Z,52.81
2023-03-18T04:01:53.812Z,52.34
2023-03-18T04:04:22.760Z,52.63
2023-03-18T04:06:51.452Z,52.14
2023-03-18T04:09:20.675Z,52.05
2023-03-18T04:11:48.897Z,52.22
2023-03-18T04:14:17.640Z,51.88
2023-03-18T04:16:46.141Z,51.96
2023-03-18T04:19:14.730Z,51.91
2023-03-18T04:21:43.520Z,51.79
2023-03-18T04:24:12.901Z,51.61
2023-03-18T04:26:41.720Z,51.87
2023-03-18T04:29:10.459Z,51.63
2023-03-18T04:31:40.256Z,51.45
2023-03-18T04:34:09.905Z,51.62
2023-03-18T04:36:38.339Z,52.33
2023-03-18T04:39:07.973Z,51.84
2023-03-18T04:41:39.860Z,52.15
2023-03-18T04:44:09.698Z,52.10
2023-03-18T04:46:46.471Z,52.17
2023-03-18T04:49:14.969Z,52.21
2023-03-18T04:51:43.706Z,51.54
2023-03-18T04:54:23.266Z,51.69
2023-03-18T04:56:53.333Z,51.63
2023-03-18T04:59:22.385Z,51.52
2023-03-18T05:01:51.279Z,51.29
2023-03-18T05:04:19.655Z,51.26
2023-03-18T05:06:53.727Z,51.24
2023-03-18T05:09:27.433Z,51.33
2023-03-18T05:12:01.639Z,51.04
2023-03-18T05:14:37.607Z,51.16
2023-03-18T05:17:06.553Z,51.08
2023-03-18T05:19:38.543Z,51.22
2023-03-18T05:22:12.255Z,51.15
2023-03-18T05:24:41.200Z,51.86
2023-03-18T05:27:10.970Z,51.36
2023-03-18T05:29:42.108Z,50.91
2023-03-18T05:32:20.455Z,51.18
2023-03-18T05:34:52.945Z,51.14
2023-03-18T05:37:21.890Z,50.76
2023-03-18T05:39:58.902Z,51.11
2023-03-18T05:42:28.325Z,51.19
2023-03-18T05:45:01.163Z,50.92
2023-03-18T05:47:30.056Z,50.57
2023-03-18T05:50:07.623Z,50.85
2023-03-18T05:52:38.385Z,50.51
2023-03-18T05:55:13.426Z,50.63
2023-03-18T05:57:43.600Z,50.71
2023-03-18T06:00:13.597Z,50.58
2023-03-18T06:02:46.627Z,50.44
2023-03-18T06:05:15.891Z,50.47
2023-03-18T06:07:45.868Z,50.37
2023-03-18T06:10:15.325Z,50.41
2023-03-18T06:12:46.596Z,50.00
2023-03-18T06:15:16.096Z,49.93
2023-03-18T06:17:45.901Z,50.14
2023-03-18T06:20:14.890Z,49.45
2023-03-18T06:22:49.180Z,49.89
2023-03-18T06:25:19.575Z,49.43
2023-03-18T06:27:48.188Z,49.79
2023-03-18T06:30:25.384Z,49.69
2023-03-18T06:32:57.506Z,49.57
2023-03-18T06:35:32.331Z,49.75
2023-03-18T06:38:01.584Z,49.45
2023-03-18T06:40:31.445Z,49.46
2023-03-18T06:43:00.696Z,49.31
2023-03-18T06:45:37.147Z,49.30
2023-03-18T06:48:08.646Z,49.47
2023-03-18T06:50:42.384Z,49.32
2023-03-18T06:53:19.121Z,49.81
2023-03-18T06:55:48.696Z,49.20
2023-03-18T06:58:18.658Z,49.44
2023-03-18T07:00:59.051Z,48.93
2023-03-18T07:03:30.502Z,49.08
2023-03-18T07:05:59.441Z,49.01
2023-03-18T07:08:29.387Z,49.24
2023-03-18T07:10:58.076Z,48.70
2023-03-18T07:13:31.444Z,48.73
2023-03-18T07:16:00.539Z,48.73
2023-03-18T07:18:29.818Z,48.24
2023-03-18T07:21:04.640Z,47.99
2023-03-18T07:23:34.549Z,48.49
2023-03-18T07:26:02.925Z,48.26
2023-03-18T07:28:33.257Z,48.76
2023-03-18T07:31:01.933Z,48.00
2023-03-18T07:33:34.959Z,48.33
2023-03-18T07:36:03.779Z,47.76
2023-03-18T07:38:32.331Z,48.01
2023-03-18T07:41:01.733Z,48.29
2023-03-18T07:43:30.477Z,48.56
2023-03-18T07:45:59.913Z,48.01
2023-03-18T07:48:28.239Z,48.22
2023-03-18T07:50:56.979Z,48.37
2023-03-18T07:53:25.480Z,48.38
2023-03-18T07:55:54.182Z,47.83
2023-03-18T07:58:22.733Z,47.43
2023-03-18T08:00:52.698Z,48.06
2023-03-18T08:03:21.192Z,48.03
2023-03-18T08:05:50.067Z,47.74
2023-03-18T08:08:18.712Z,47.79
2023-03-18T08:10:50.168Z,48.25
2023-03-18T08:13:18.856Z,48.15
2023-03-18T08:15:48.470Z,48.32
2023-03-18T08:18:16.947Z,48.07
2023-03-18T08:20:46.277Z,47.83
2023-03-18T08:23:14.964Z,47.84
2023-03-18T08:25:44.088Z,48.54
2023-03-18T08:28:12.928Z,47.82
2023-03-18T08:30:41.694Z,48.08
2023-03-18T08:33:10.265Z,47.72
2023-03-18T08:35:41.538Z,47.95
2023-03-18T08:38:16.667Z,47.95
2023-03-18T08:40:47.596Z,47.77
2023-03-18T08:43:15.943Z,47.89
2023-03-18T08:45:44.489Z,47.04
2023-03-18T08:48:13.420Z,47.47
2023-03-18T08:50:43.210Z,47.34
2023-03-18T08:53:13.286Z,46.84
2023-03-18T08:55:41.763Z,47.35
2023-03-18T08:58:10.689Z,47.42
2023-03-18T09:00:40.329Z,47.14
2023-03-18T09:03:11.074Z,47.03
2023-03-18T09:05:40.610Z,47.38
2023-03-18T09:08:09.253Z,46.74
2023-03-18T09:10:41.654Z,46.62
2023-03-18T09:13:10.135Z,46.70
2023-03-18T09:15:39.722Z,46.97
2023-03-18T09:18:15.427Z,46.85
2023-03-18T09:20:45.417Z,47.66
2023-03-18T09:23:14.544Z,47.44
2023-03-18T09:25:43.442Z,47.10
2023-03-18T09:28:11.837Z,47.07
2023-03-18T09:30:40.606Z,46.83
2023-03-18T09:33:11.668Z,47.19
2023-03-18T09:35:47.744Z,46.78
2023-03-18T09:38:17.522Z,46.86
2023-03-18T09:40:56.293Z,47.04
2023-03-18T09:43:45.166Z,46.91
2023-03-18T09:46:18.607Z,46.40
2023-03-18T09:49:25.424Z,47.18
2023-03-18T09:52:18.648Z,47.31
2023-03-18T09:54:53.736Z,46.66
2023-03-18T09:57:37.067Z,46.92
2023-03-18T10:00:29.599Z,47.26
2023-03-18T10:03:13.176Z,46.86
2023-03-18T10:06:21.724Z,46.45
2023-03-18T10:08:58.692Z,47.08
2023-03-18T10:11:42.916Z,47.36
2023-03-18T10:14:24.874Z,46.91
2023-03-18T10:17:15.112Z,46.71
2023-03-18T10:19:50.248Z,46.47
2023-03-18T10:22:31.198Z,46.32
2023-03-18T10:25:18.860Z,46.06
2023-03-18T10:28:04.341Z,46.41
2023-03-18T10:31:11.224Z,46.75
2023-03-18T10:33:46.629Z,46.74
2023-03-18T10:36:29.722Z,46.18
2023-03-18T10:38:59.415Z,46.91
2023-03-18T10:41:33.476Z,46.77
2023-03-18T10:44:16.322Z,46.99
2023-03-18T10:46:46.679Z,46.62
2023-03-18T10:49:24.168Z,45.99
2023-03-18T10:52:16.052Z,46.05
2023-03-18T10:54:52.833Z,45.92
2023-03-18T10:57:24.593Z,46.04
2023-03-18T10:59:55.785Z,45.72
2023-03-18T11:02:32.154Z,46.15
2023-03-18T11:05:04.758Z,45.95
2023-03-18T11:07:36.265Z,45.96
2023-03-18T11:10:14.098Z,45.97
2023-03-18T11:12:42.703Z,45.23
2023-03-18T11:15:11.572Z,45.80
2023-03-18T11:17:41.028Z,46.08
2023-03-18T11:20:45.660Z,45.64
2023-03-18T11:23:20.772Z,45.42
2023-03-18T11:25:50.121Z,44.93
2023-03-18T11:28:23.556Z,45.35
2023-03-18T11:30:56.360Z,44.75
2023-03-18T11:33:25.977Z,44.60
2023-03-18T11:35:58.832Z,44.70
2023-03-18T11:38:29.525Z,45.00
2023-03-18T11:41:11.181Z,45.28
2023-03-18T11:43:40.071Z,45.22
2023-03-18T11:46:09.226Z,45.18
2023-03-18T11:48:40.399Z,45.36
2023-03-18T11:51:23.676Z,44.82
2023-03-18T11:54:07.364Z,44.45
2023-03-18T11:56:39.539Z,44.76
2023-03-18T11:59:27.028Z,44.88
2023-03-18T12:02:14.484Z,44.66
2023-03-18T12:04:45.204Z,43.95
2023-03-18T12:07:39.089Z,44.34
2023-03-18T12:10:27.336Z,44.74
2023-03-18T12:13:29.919Z,44.55
2023-03-18T12:16:07.504Z,44.44
2023-03-18T12:18:57.912Z,44.49
2023-03-18T12:21:32.375Z,44.62
2023-03-18T12:24:20.791Z,44.12
2023-03-18T12:27:01.224Z,44.38
2023-03-18T12:30:11.778Z,44.23
2023-03-18T12:33:04.499Z,44.18
2023-03-18T12:36:04.091Z,44.04
2023-03-18T12:38:58.171Z,44.46
2023-03-18T12:41:42.888Z,43.80
2023-03-18T12:44:57.792Z,44.11
2023-03-18T12:47:52.048Z,43.58
2023-03-18T12:50:47.828Z,44.07
2023-03-18T12:53:29.056Z,43.63
2023-03-18T12:56:05.780Z,43.54
2023-03-18T12:58:39.884Z,43.07
2023-03-18T13:01:28.788Z,43.25
2023-03-18T13:04:01.620Z,43.06
2023-03-18T13:06:39.613Z,42.99
2023-03-18T13:09:17.439Z,42.98
2023-03-18T13:11:49.536Z,42.39
2023-03-18T13:14:22.697Z,42.52
2023-03-18T13:16:51.263Z,41.97
2023-03-18T13:19:19.777Z,42.39
2023-03-18T13:21:52.790Z,41.83
2023-03-18T13:24:44.288Z,41.62
2023-03-18T13:27:40.478Z,40.86
2023-03-18T13:30:24.126Z,40.47
2023-03-18T13:33:02.937Z,39.90
2023-03-18T13:35:36.704Z,40.05
2023-03-18T13:38:20.025Z,39.60
2023-03-18T13:41:22.583Z,39.27
2023-03-18T13:43:52.141Z,38.61
2023-03-18T13:46:23.841Z,38.44
2023-03-18T13:48:57.148Z,38.09
2023-03-18T13:51:25.547Z,38.23
2023-03-18T13:53:55.079Z,37.71
2023-03-18T13:56:43.460Z,37.82
2023-03-18T13:59:34.225Z,37.19
2023-03-18T14:02:43.836Z,37.07
2023-03-18T14:05:32.563Z,36.51
2023-03-18T14:08:23.507Z,36.16
2023-03-18T14:11:23.067Z,36.67
2023-03-18T14:14:12.318Z,36.36
2023-03-18T14:16:41.393Z,36.07
2023-03-18T14:19:24.289Z,36.45
2023-03-18T14:21:55.204Z,36.09
2023-03-18T14:24:26.349Z,36.32
2023-03-18T14:27:03.690Z,36.01
2023-03-18T14:29:45.257Z,36.26
2023-03-18T14:32:31.277Z,35.81
2023-03-18T14:35:18.679Z,35.66
2023-03-18T14:38:10.094Z,35.35
2023-03-18T14:40:40.994Z,35.50
2023-03-18T14:43:30.718Z,35.68
2023-03-18T14:46:02.082Z,35.48
2023-03-18T14:49:57.905Z,37.92
2023-03-18T14:52:30.379Z,35.79
2023-03-18T14:55:02.453Z,35.77
2023-03-18T14:57:31.116Z,35.71
2023-03-18T15:00:00.416Z,35.81
2023-03-18T15:02:33.032Z,35.65
2023-03-18T15:05:02.152Z,35.69
2023-03-18T15:07:35.441Z,35.73
2023-03-18T15:10:14.850Z,35.77
2023-03-18T15:12:43.628Z,35.86
2023-03-18T15:15:17.982Z,36.31
2023-03-18T15:17:49.366Z,36.41
2023-03-18T15:20:22.196Z,36.53
2023-03-18T15:22:50.730Z,37.03
2023-03-18T15:25:20.767Z,37.01
2023-03-18T15:27:49.695Z,37.35
2023-03-18T15:30:25.335Z,37.50
2023-03-18T15:33:28.771Z,37.10
2023-03-18T15:36:03.575Z,37.31
2023-03-18T15:38:32.116Z,37.75
2023-03-18T15:41:12.265Z,38.04
2023-03-18T15:43:46.129Z,38.18
2023-03-18T15:46:27.405Z,38.42
2023-03-18T15:48:56.295Z,38.95
2023-03-18T15:51:55.782Z,39.09
2023-03-18T15:54:31.023Z,39.29
2023-03-18T15:57:11.247Z,39.63
2023-03-18T15:59:40.177Z,39.98
2023-03-18T16:02:14.694Z,40.30
2023-03-18T16:04:44.997Z,40.93
2023-03-18T16:07:28.564Z,41.23
2023-03-18T16:09:56.918Z,41.37
2023-03-18T16:12:25.413Z,41.72
2023-03-18T16:14:53.967Z,42.00
2023-03-18T16:17:22.806Z,42.18
2023-03-18T16:19:55.378Z,42.26
2023-03-18T16:22:23.700Z,42.24
2023-03-18T16:24:53.331Z,42.66
2023-03-18T16:27:28.693Z,42.82
2023-03-18T16:29:57.376Z,43.02
2023-03-18T16:32:26.402Z,43.41
2023-03-18T16:34:55.305Z,43.43
2023-03-18T16:37:26.025Z,43.34
2023-03-18T16:39:57.765Z,43.79
2023-03-18T16:42:27.453Z,44.27
2023-03-18T16:44:56.092Z,44.14
2023-03-18T16:47:26.649Z,44.51
2023-03-18T16:49:56.717Z,44.41
2023-03-18T16:52:25.544Z,44.73
2023-03-18T16:54:53.917Z,44.14
2023-03-18T16:57:24.214Z,44.70
2023-03-18T16:59:56.120Z,44.57
2023-03-18T17:02:36.630Z,45.20
2023-03-18T17:05:06.705Z,45.30
2023-03-18T17:07:37.093Z,45.04
2023-03-18T17:10:06.513Z,45.43
2023-03-18T17:12:37.421Z,46.03
2023-03-18T17:15:09.836Z,45.62
2023-03-18T17:17:39.380Z,46.24
2023-03-18T17:20:21.377Z,46.52
2023-03-18T17:22:50.908Z,46.84
2023-03-18T17:25:19.955Z,47.11
2023-03-18T17:27:56.835Z,47.97
2023-03-18T17:30:36.087Z,47.18
2023-03-18T17:33:05.498Z,47.63
2023-03-18T17:35:36.104Z,47.32
2023-03-18T17:38:05.992Z,47.90
2023-03-18T17:40:34.555Z,47.84
2023-03-18T17:43:05.427Z,47.96
2023-03-18T17:45:37.013Z,47.87
2023-03-18T17:48:16.345Z,48.31
2023-03-18T17:50:45.142Z,48.93
2023-03-18T17:53:37.489Z,48.89
2023-03-18T17:56:07.977Z,49.34
2023-03-18T17:58:37.361Z,49.71
2023-03-18T18:01:13.194Z,49.49
2023-03-18T18:03:41.807Z,49.48
2023-03-18T18:06:21.804Z,49.53
2023-03-18T18:08:50.247Z,50.16
2023-03-18T18:11:29.626Z,49.94
2023-03-18T18:14:19.895Z,49.52
2023-03-18T18:16:48.637Z,49.15
2023-03-18T18:19:24.496Z,49.94
2023-03-18T18:21:53.644Z,49.96
2023-03-18T18:24:29.344Z,50.56
2023-03-18T18:26:58.491Z,50.56
2023-03-18T18:29:28.514Z,50.56
2023-03-18T18:31:58.428Z,50.59
2023-03-18T18:34:28.247Z,50.85
2023-03-18T18:36:56.964Z,51.15
2023-03-18T18:39:25.340Z,51.02
2023-03-18T18:42:08.605Z,51.15
2023-03-18T18:44:37.785Z,51.21
2023-03-18T18:47:16.528Z,52.04
2023-03-18T18:49:44.896Z,52.42
2023-03-18T18:52:13.230Z,52.21
2023-03-18T18:54:42.178Z,51.84
2023-03-18T18:57:31.397Z,52.25
2023-03-18T18:59:59.826Z,52.85
2023-03-18T19:02:35.124Z,52.67
2023-03-18T19:05:04.917Z,52.37
2023-03-18T19:07:33.906Z,52.27
2023-03-18T19:10:02.623Z,52.38
2023-03-18T19:12:32.333Z,52.13
2023-03-18T19:15:07.046Z,51.82
2023-03-18T19:17:36.505Z,51.61
2023-03-18T19:20:05.617Z,50.94
2023-03-18T19:22:36.736Z,51.42
2023-03-18T19:25:10.025Z,51.17
2023-03-18T19:27:38.394Z,51.55
2023-03-18T19:30:21.338Z,51.13
2023-03-18T19:32:50.816Z,51.14
2023-03-18T19:35:19.892Z,51.93
2023-03-18T19:37:48.986Z,52.35
2023-03-18T19:40:30.289Z,52.49
2023-03-18T19:43:00.524Z,52.76
2023-03-18T19:45:29.304Z,51.72
2023-03-18T19:48:02.837Z,51.80
2023-03-18T19:50:31.856Z,51.39
2023-03-18T19:53:10.837Z,51.75
2023-03-18T19:55:41.624Z,52.98
2023-03-18T19:58:28.204Z,52.38
2023-03-18T20:00:56.889Z,52.00
2023-03-18T20:03:27.008Z,52.46
2023-03-18T20:06:03.554Z,52.33
2023-03-18T20:08:32.001Z,53.09
2023-03-18T20:11:00.562Z,52.25
2023-03-18T20:13:31.944Z,52.38
2023-03-18T20:16:00.903Z,52.01
2023-03-18T20:18:29.518Z,52.01
2023-03-18T20:20:58.924Z,51.40
2023-03-18T20:23:29.403Z,51.57
2023-03-18T20:25:57.964Z,51.75
2023-03-18T20:28:27.646Z,51.70
2023-03-18T20:30:57.573Z,51.85
2023-03-18T20:33:27.154Z,51.87
2023-03-18T20:35:55.684Z,51.52
2023-03-18T20:38:31.803Z,51.51
2023-03-18T20:41:01.234Z,51.82
2023-03-18T20:43:30.380Z,51.79
2023-03-18T20:45:59.586Z,51.69
2023-03-18T20:48:30.589Z,51.80
2023-03-18T20:50:59.893Z,51.51
2023-03-18T20:53:29.096Z,51.73
2023-03-18T20:55:57.673Z,52.16
2023-03-18T20:58:27.559Z,51.40
2023-03-18T21:00:56.473Z,51.64
2023-03-18T21:03:31.803Z,52.37
2023-03-18T21:06:02.538Z,53.10
2023-03-18T21:08:33.057Z,53.19
2023-03-18T21:11:03.963Z,53.34
2023-03-18T21:13:39.290Z,53.42
2023-03-18T21:16:13.145Z,53.23
2023-03-18T21:18:50.125Z,54.97
2023-03-18T21:21:31.532Z,54.26
2023-03-18T21:23:59.913Z,54.05
2023-03-18T21:26:29.402Z,54.23
2023-03-18T21:28:58.058Z,54.53
2023-03-18T21:31:31.421Z,55.16
2023-03-18T21:34:01.299Z,55.27
2023-03-18T21:36:30.149Z,56.94
2023-03-18T21:38:58.963Z,57.67
2023-03-18T21:41:28.876Z,57.27
2023-03-18T21:44:01.013Z,57.68
2023-03-18T21:46:30.706Z,57.80
2023-03-18T21:48:59.046Z,58.44
2023-03-18T21:51:38.606Z,59.05
2023-03-18T21:54:18.638Z,59.78
2023-03-18T21:56:48.275Z,59.97
2023-03-18T21:59:16.796Z,59.46
2023-03-18T22:01:46.929Z,60.09
2023-03-18T22:04:15.797Z,60.00
2023-03-18T22:06:44.227Z,59.70
2023-03-18T22:09:12.679Z,59.65
2023-03-18T22:11:41.663Z,59.84
2023-03-18T22:14:12.765Z,59.92
2023-03-18T22:16:41.517Z,60.53
2023-03-18T22:19:09.750Z,60.16
2023-03-18T22:21:40.830Z,60.50
2023-03-18T22:24:14.156Z,60.36
2023-03-18T22:26:42.590Z,59.03
2023-03-18T22:29:13.132Z,58.77
2023-03-18T22:31:43.934Z,59.04
2023-03-18T22:34:20.672Z,59.06
2023-03-18T22:36:49.029Z,58.88
2023-03-18T22:39:17.980Z,58.62
2023-03-18T22:41:46.841Z,58.57
2023-03-18T22:44:21.449Z,58.55
2023-03-18T22:46:49.857Z,58.62
2023-03-18T22:49:18.201Z,58.36
2023-03-18T22:51:46.918Z,58.03
2023-03-18T22:54:19.346Z,58.19
2023-03-18T22:56:47.882Z,59.73
2023-03-18T22:59:16.193Z,59.97
2023-03-18T23:01:46.838Z,59.80
2023-03-18T23:04:18.471Z,59.77
2023-03-18T23:06:52.613Z,60.93
2023-03-18T23:09:21.331Z,60.83
2023-03-18T23:11:49.728Z,61.12
2023-03-18T23:14:18.063Z,60.29
2023-03-18T23:16:46.916Z,60.59
2023-03-18T23:19:15.538Z,60.84
2023-03-18T23:21:44.161Z,61.38
2023-03-18T23:24:15.412Z,61.09
2023-03-18T23:26:45.419Z,60.47
2023-03-18T23:29:13.713Z,60.18
2023-03-18T23:31:41.986Z,60.15
2023-03-18T23:34:10.543Z,60.23
2023-03-18T23:36:38.949Z,59.96
2023-03-18T23:39:10.450Z,61.10
2023-03-18T23:41:42.235Z,61.08
2023-03-18T23:44:11.410Z,60.21
2023-03-18T23:46:42.416Z,60.90
2023-03-18T23:49:11.924Z,61.15
2023-03-18T23:51:41.045Z,61.11
2023-03-18T23:54:09.771Z,61.13
2023-03-18T23:56:38.560Z,61.07
2023-03-18T23:59:07.015Z,60.74
